.
WxDataArchive / Data Records for 2010-10-07
2010-10-06 October 2010 2010-10-08

Data Records for Thursday, 07 October 2010

Time	Temp	Chill	HIndex	Humid	Dewpt	 Wind 	HiWind	WindDir	Rain 	Barom 
-----	----	-----	------	-----	-----	------	------	-------	-----	----- 
00:00	62.9	62.9	62.9	50	44.0	1	6	270	0.00	29.888 
00:05	62.9	62.9	62.9	50	44.0	2	4	292	0.00	29.888 
00:10	62.9	62.9	62.9	50	44.0	2	4	292	0.00	29.888 
00:15	62.7	62.7	62.7	51	44.3	1	3	270	0.00	29.890 
00:20	62.6	62.6	62.6	51	44.2	1	3	270	0.00	29.890 
00:25	62.4	62.4	62.4	52	44.5	1	2	270	0.00	29.890 
00:30	62.3	62.3	62.3	52	44.4	1	2	270	0.00	29.896 
00:35	62.1	62.1	62.1	53	44.8	1	3	270	0.00	29.896 
00:40	62.1	62.1	62.1	54	45.3	0	2	270	0.00	29.896 
00:45	62.0	62.0	62.0	54	45.2	1	2	270	0.00	29.899 
00:50	62.0	62.0	62.0	55	45.6	1	4	270	0.00	29.899 
00:55	62.1	62.1	62.1	56	46.2	1	3	270	0.00	29.899 
01:00	62.1	62.1	62.1	56	46.2	0	2	270	0.00	29.897 
01:05	62.1	62.1	62.1	56	46.2	0	2	270	0.00	29.897 
01:10	62.0	62.0	62.0	57	46.6	0	1	270	0.00	29.897 
01:15	61.8	61.8	61.8	58	46.9	0	1	270	0.00	29.901 
01:20	61.5	61.5	61.5	58	46.6	0	2	270	0.00	29.901 
01:25	61.3	61.3	61.3	59	46.8	0	2	270	0.00	29.901 
01:30	61.2	61.2	61.2	60	47.2	0	1	270	0.00	29.902 
01:35	61.2	61.2	61.2	60	47.2	0	1	270	0.00	29.902 
01:40	61.0	61.0	61.0	61	47.5	0	1	270	0.00	29.902 
01:45	60.7	60.7	60.7	61	47.2	0	0	---	0.00	29.908 
01:50	60.4	60.4	60.4	62	47.3	0	0	---	0.00	29.908 
01:55	60.2	60.2	60.2	62	47.1	0	1	270	0.00	29.908 
02:00	59.9	59.9	59.9	63	47.3	0	0	---	0.00	29.918 
02:05	59.8	59.8	59.8	64	47.6	0	0	---	0.00	29.918 
02:10	59.5	59.5	59.5	64	47.3	0	0	---	0.00	29.918 
02:15	59.3	59.3	59.3	65	47.5	0	0	---	0.00	29.921 
02:20	59.2	59.2	59.2	65	47.4	0	0	---	0.00	29.921 
02:25	58.9	58.9	58.9	66	47.6	0	0	---	0.00	29.921 
02:30	58.7	58.7	58.7	66	47.4	0	1	270	0.00	29.926 
02:35	58.7	58.7	58.7	66	47.4	0	0	---	0.00	29.926 
02:40	58.7	58.7	58.7	67	47.8	0	0	---	0.00	29.926 
02:45	58.4	58.4	58.4	67	47.5	0	0	---	0.00	29.926 
02:50	58.3	58.3	58.3	68	47.8	0	0	---	0.00	29.926 
02:55	58.0	58.0	58.0	68	47.5	0	0	---	0.00	29.926 
03:00	57.8	57.8	57.8	69	47.7	0	0	---	0.00	29.926 
03:05	57.5	57.5	57.5	69	47.4	0	0	---	0.00	29.926 
03:10	57.2	57.2	57.2	69	47.1	0	0	---	0.00	29.926 
03:15	56.6	56.6	56.6	70	46.9	0	0	---	0.00	29.934 
03:20	56.2	56.2	56.2	71	46.9	0	0	---	0.00	29.934 
03:25	55.7	55.7	55.7	72	46.8	0	0	---	0.00	29.934 
03:30	55.1	55.1	55.1	73	46.6	0	0	---	0.00	29.937 
03:35	54.7	54.7	54.7	74	46.6	0	0	---	0.00	29.937 
03:40	54.2	54.2	54.2	75	46.4	0	0	---	0.00	29.937 
03:45	53.9	53.9	53.9	77	46.9	0	0	---	0.00	29.938 
03:50	53.5	53.5	53.5	77	46.5	0	0	---	0.00	29.938 
03:55	53.2	53.2	53.2	79	46.9	0	0	---	0.00	29.938 
04:00	53.1	53.1	53.1	80	47.1	0	0	---	0.00	29.945 
04:05	52.9	52.9	52.9	80	46.9	0	0	---	0.00	29.945 
04:10	52.8	52.8	52.8	80	46.8	0	0	---	0.00	29.945 
04:15	52.6	52.6	52.6	81	46.9	0	0	---	0.00	29.954 
04:20	52.8	52.8	52.8	82	47.5	0	0	---	0.00	29.954 
04:25	52.6	52.6	52.6	82	47.3	0	0	---	0.00	29.954 
04:30	52.5	52.5	52.5	82	47.2	0	0	---	0.00	29.959 
04:35	52.3	52.3	52.3	82	47.0	0	0	---	0.00	29.959 
04:40	52.3	52.3	52.3	83	47.3	0	0	---	0.00	29.959 
04:45	52.5	52.5	52.5	83	47.5	0	0	---	0.00	29.964 
04:50	52.6	52.6	52.6	83	47.6	0	0	---	0.00	29.964 
04:55	52.6	52.6	52.6	83	47.6	0	0	---	0.00	29.964 
05:00	52.5	52.5	52.5	83	47.5	0	0	---	0.00	29.971 
05:05	52.3	52.3	52.3	83	47.3	0	0	---	0.00	29.971 
05:10	52.2	52.2	52.2	83	47.2	0	0	---	0.00	29.971 
05:15	52.2	52.2	52.2	84	47.5	0	0	---	0.00	29.978 
05:20	51.9	51.9	51.9	84	47.2	0	0	---	0.00	29.978 
05:25	51.6	51.6	51.6	84	46.9	0	0	---	0.00	29.978 
05:30	51.3	51.3	51.3	84	46.6	0	0	---	0.00	29.982 
05:35	51.0	51.0	51.0	84	46.3	0	0	---	0.00	29.982 
05:40	50.7	50.7	50.7	85	46.4	0	1	270	0.00	29.982 
05:45	50.5	50.5	50.5	86	46.5	0	0	---	0.00	29.986 
05:50	50.4	50.4	50.4	86	46.4	0	0	---	0.00	29.986 
05:55	50.4	50.4	50.4	87	46.7	0	0	---	0.00	29.986 
06:00	50.2	50.2	50.2	87	46.5	0	0	---	0.00	29.990 
06:05	50.1	50.1	50.1	87	46.4	0	0	---	0.00	29.990 
06:10	49.9	49.9	49.9	87	46.2	0	0	---	0.00	29.990 
06:15	49.6	49.6	49.6	88	46.2	0	0	---	0.00	29.995 
06:20	49.6	49.6	49.6	88	46.2	0	0	---	0.00	29.995 
06:25	49.5	49.5	49.5	88	46.1	0	0	---	0.00	29.995 
06:30	49.4	49.4	49.4	88	46.0	0	0	---	0.00	29.998 
06:35	49.1	49.1	49.1	89	46.0	0	0	---	0.00	29.998 
06:40	48.9	48.9	48.9	89	45.8	0	0	---	0.00	29.998 
06:45	48.8	48.8	48.8	89	45.7	0	0	---	0.00	30.006 
06:50	48.8	48.8	48.8	90	46.0	0	0	---	0.00	30.006 
06:55	48.6	48.6	48.6	90	45.8	0	0	---	0.00	30.006 
07:00	48.3	48.3	48.3	90	45.5	0	0	---	0.00	30.006 
07:05	48.0	48.0	48.0	90	45.2	0	0	---	0.00	30.006 
07:10	47.9	47.9	47.9	90	45.1	0	0	---	0.00	30.006 
07:15	47.6	47.6	47.6	90	44.8	0	0	---	0.00	30.011 
07:20	47.6	47.6	47.6	91	45.1	0	0	---	0.00	30.011 
07:25	47.6	47.6	47.6	91	45.1	0	0	---	0.00	30.011 
07:30	47.6	47.6	47.6	91	45.1	0	0	---	0.00	30.014 
07:35	47.4	47.4	47.4	91	44.9	0	0	---	0.00	30.014 
07:40	47.3	47.3	47.3	92	45.1	0	0	---	0.00	30.014 
07:45	47.1	47.1	47.1	92	44.9	0	0	---	0.00	30.023 
07:50	47.1	47.1	47.1	92	44.9	0	0	---	0.00	30.023 
07:55	47.0	47.0	47.0	92	44.8	0	0	---	0.00	30.023 
08:00	47.0	47.0	47.0	92	44.8	0	0	---	0.00	30.025 
08:05	47.0	47.0	47.0	92	44.8	0	0	---	0.00	30.025 
08:10	47.3	47.3	47.3	93	45.4	0	0	---	0.00	30.025 
08:15	47.6	47.6	47.6	93	45.7	0	0	---	0.00	30.036 
08:20	47.9	47.9	47.9	93	46.0	0	0	---	0.00	30.036 
08:25	48.2	48.2	48.2	93	46.3	0	0	---	0.00	30.036 
08:30	48.5	48.5	48.5	93	46.6	0	0	---	0.00	30.039 
08:35	48.8	48.8	48.8	93	46.9	0	1	270	0.00	30.039 
08:40	49.2	49.2	49.2	93	47.3	0	0	---	0.00	30.039 
08:45	49.5	49.5	49.5	93	47.6	0	1	270	0.00	30.040 
08:50	49.9	49.9	49.9	93	48.0	0	2	270	0.00	30.040 
08:55	50.4	50.4	50.4	92	48.2	0	2	270	0.00	30.040 
09:00	50.8	50.8	50.8	92	48.6	0	2	270	0.00	30.045 
09:05	51.3	51.3	51.3	91	48.8	0	1	270	0.00	30.045 
09:10	51.7	51.7	51.7	90	48.9	0	2	270	0.00	30.045 
09:15	52.2	52.2	52.2	88	48.8	1	3	270	0.00	30.050 
09:20	52.6	52.6	52.6	86	48.5	1	3	270	0.00	30.050 
09:25	53.2	53.2	53.2	84	48.5	1	3	270	0.00	30.050 
09:30	53.6	53.6	53.6	82	48.2	0	1	270	0.00	30.054 
09:35	54.2	54.2	54.2	81	48.5	0	2	270	0.00	30.054 
09:40	54.8	54.8	54.8	79	48.4	0	1	270	0.00	30.054 
09:45	55.3	55.3	55.3	76	47.9	0	2	270	0.00	30.055 
09:50	55.7	55.7	55.7	75	47.9	0	2	270	0.00	30.055 
09:55	56.3	56.3	56.3	73	47.8	1	3	270	0.00	30.055 
10:00	56.9	56.9	56.9	68	46.4	2	4	270	0.00	30.054 
10:05	57.5	57.5	57.5	67	46.6	1	3	292	0.00	30.054 
10:10	58.1	58.1	58.1	64	46.0	2	4	292	0.00	30.054 
10:15	58.6	58.6	58.6	61	45.2	1	4	292	0.00	30.053 
10:20	59.0	59.0	59.0	60	45.1	1	3	270	0.00	30.053 
10:25	59.6	59.6	59.6	58	44.8	1	2	270	0.00	30.053 
10:30	59.9	59.9	59.9	56	44.2	2	5	270	0.00	30.062 
10:35	60.4	60.4	60.4	57	45.1	1	3	270	0.00	30.062 
10:40	60.9	60.9	60.9	54	44.1	2	3	270	0.00	30.062 
10:45	61.3	61.3	61.3	54	44.5	2	4	270	0.00	30.066 
10:50	61.6	61.6	61.6	54	44.8	1	2	315	0.00	30.066 
10:55	62.3	62.3	62.3	54	45.4	1	2	315	0.00	30.066 
11:00	63.1	63.1	63.1	50	44.2	1	3	315	0.00	30.066 
11:05	63.2	63.2	63.2	50	44.2	1	4	315	0.00	30.066 
11:10	63.2	63.2	63.2	50	44.2	2	4	270	0.00	30.066 
11:15	63.4	63.4	63.4	47	42.8	2	5	270	0.00	30.063 
11:20	63.7	63.7	63.7	47	43.1	2	4	270	0.00	30.063 
11:25	64.5	64.5	64.5	47	43.8	1	3	315	0.00	30.063 
11:30	64.8	64.8	64.8	42	41.2	1	4	315	0.00	30.065 
11:35	64.8	64.8	64.8	42	41.2	2	5	270	0.00	30.065 
11:40	64.8	64.8	64.8	42	41.2	1	4	315	0.00	30.065 
11:45	65.2	65.2	65.2	43	42.1	1	4	270	0.00	30.064 
11:50	65.5	65.5	65.5	42	41.8	2	5	270	0.00	30.064 
11:55	66.1	66.1	66.1	42	42.3	1	2	292	0.00	30.064 
12:00	66.6	66.6	66.6	41	42.2	1	4	315	0.00	30.062 
12:05	66.9	66.9	66.9	40	41.8	1	4	270	0.00	30.062 
12:10	66.8	66.8	66.8	38	40.4	2	5	270	0.00	30.062 
12:15	66.8	66.8	66.8	39	41.0	2	5	270	0.00	30.062 
12:20	66.9	66.9	66.9	37	39.8	3	5	270	0.00	30.062 
12:25	67.1	67.1	67.1	37	40.0	2	5	270	0.00	30.062 
12:30	67.4	67.4	67.4	37	40.2	2	4	270	0.00	30.062 
12:35	67.8	67.8	67.8	36	39.9	1	4	270	0.00	30.062 
12:40	68.3	68.3	68.3	35	39.6	2	4	248	0.00	30.062 
12:45	68.4	68.4	68.4	36	40.4	2	4	270	0.00	30.060 
12:50	68.3	68.3	68.3	36	40.3	1	4	338	0.00	30.060 
12:55	68.4	68.4	68.4	34	38.9	2	5	270	0.00	30.060 
13:00	68.8	68.8	68.8	33	38.5	2	5	292	0.00	30.059 
13:05	69.3	69.3	69.3	33	39.0	1	4	292	0.00	30.059 
13:10	69.3	69.3	69.3	33	39.0	3	10	292	0.00	30.059 
13:15	69.3	69.3	69.3	34	39.7	1	7	292	0.00	30.060 
13:20	69.9	69.9	69.9	33	39.5	1	4	292	0.00	30.060 
13:25	70.3	70.3	70.3	33	39.8	2	4	270	0.00	30.060 
13:30	70.6	70.6	70.6	32	39.3	3	5	270	0.00	30.056 
13:35	70.6	70.6	70.6	32	39.3	2	4	270	0.00	30.056 
13:40	70.8	70.8	70.8	31	38.7	3	5	270	0.00	30.056 
13:45	70.8	70.8	70.8	30	37.8	3	6	270	0.00	30.055 
13:50	70.8	70.8	70.8	32	39.5	1	5	270	0.00	30.055 
13:55	71.1	71.1	71.1	30	38.1	3	6	270	0.00	30.055 
14:00	71.3	71.3	71.3	31	39.1	3	5	270	0.00	30.047 
14:05	71.6	71.6	71.6	30	38.5	1	5	315	0.00	30.047 
14:10	71.5	71.5	71.5	30	38.4	3	7	270	0.00	30.047 
14:15	71.6	71.6	71.6	29	37.6	2	5	338	0.00	30.045 
14:20	71.5	71.5	71.5	30	38.4	2	4	292	0.00	30.045 
14:25	71.6	71.6	71.6	31	39.4	2	5	315	0.00	30.045 
14:30	72.1	72.1	72.1	30	38.9	2	4	270	0.00	30.042 
14:35	72.3	72.3	72.3	29	38.3	2	6	270	0.00	30.042 
14:40	72.5	72.5	72.5	28	37.5	1	5	270	0.00	30.042 
14:45	72.8	72.8	72.8	30	39.5	1	3	315	0.00	30.032 
14:50	73.0	73.0	73.0	31	40.6	1	5	270	0.00	30.032 
14:55	72.8	72.8	72.8	28	37.8	3	5	270	0.00	30.032 
15:00	72.7	72.7	72.7	30	39.5	2	6	315	0.00	30.028 
15:05	72.8	72.8	72.8	28	37.8	2	5	270	0.00	30.028 
15:10	72.8	72.8	72.8	28	37.8	3	6	270	0.00	30.028 
15:15	72.5	72.5	72.5	29	38.4	2	7	270	0.00	30.028 
15:20	72.7	72.7	72.7	28	37.7	2	5	270	0.00	30.028 
15:25	73.0	73.0	73.0	28	38.0	3	7	270	0.00	30.028 
15:30	73.0	73.0	73.0	28	38.0	1	4	270	0.00	30.023 
15:35	73.2	73.2	73.2	27	37.2	2	5	270	0.00	30.023 
15:40	73.0	73.0	73.0	28	38.0	2	4	292	0.00	30.023 
15:45	72.8	72.8	72.8	28	37.8	4	9	270	0.00	30.022 
15:50	73.0	73.0	73.0	27	37.0	2	6	270	0.00	30.022 
15:55	73.0	73.0	73.0	28	38.0	2	6	270	0.00	30.022 
16:00	73.3	73.3	73.3	28	38.2	2	6	270	0.00	30.022 
16:05	73.3	73.3	73.3	28	38.2	3	6	270	0.00	30.022 
16:10	73.2	73.2	73.2	28	38.1	1	4	338	0.00	30.022 
16:15	73.2	73.2	73.2	27	37.2	2	4	270	0.00	30.024 
16:20	73.3	73.3	73.3	27	37.3	2	4	270	0.00	30.024 
16:25	73.5	73.5	73.5	28	38.4	1	4	270	0.00	30.024 
16:30	73.5	73.5	73.5	27	37.5	2	5	315	0.00	30.023 
16:35	73.3	73.3	73.3	27	37.3	2	5	292	0.00	30.023 
16:40	73.3	73.3	73.3	29	39.1	1	4	270	0.00	30.023 
16:45	73.2	73.2	73.2	28	38.1	2	5	292	0.00	30.025 
16:50	73.0	73.0	73.0	28	38.0	1	4	315	0.00	30.025 
16:55	73.2	73.2	73.2	28	38.1	2	5	292	0.00	30.025 
17:00	73.2	73.2	73.2	27	37.2	2	4	315	0.00	30.024 
17:05	73.0	73.0	73.0	28	38.0	2	9	315	0.00	30.024 
17:10	72.8	72.8	72.8	28	37.8	2	4	270	0.00	30.024 
17:15	72.7	72.7	72.7	28	37.7	2	9	270	0.00	30.032 
17:20	72.5	72.5	72.5	27	36.6	3	7	270	0.00	30.032 
17:25	72.5	72.5	72.5	27	36.6	2	5	270	0.00	30.032 
17:30	72.3	72.3	72.3	28	37.4	2	7	270	0.00	30.033 
17:35	72.3	72.3	72.3	28	37.4	1	4	270	0.00	30.033 
17:40	72.1	72.1	72.1	28	37.2	1	3	292	0.00	30.033 
17:45	72.0	72.0	72.0	28	37.1	1	3	270	0.00	30.033 
17:50	71.8	71.8	71.8	28	36.9	2	6	270	0.00	30.033 
17:55	71.5	71.5	71.5	28	36.7	2	5	270	0.00	30.033 
18:00	71.3	71.3	71.3	29	37.4	1	5	315	0.00	30.037 
18:05	71.1	71.1	71.1	29	37.2	1	3	315	0.00	30.037 
18:10	70.9	70.9	70.9	28	36.2	2	5	315	0.00	30.037 
18:15	70.8	70.8	70.8	27	35.2	1	5	315	0.00	30.041 
18:20	70.6	70.6	70.6	28	35.9	1	5	315	0.00	30.041 
18:25	70.3	70.3	70.3	28	35.6	0	2	315	0.00	30.041 
18:30	70.1	70.1	70.1	28	35.5	1	3	315	0.00	30.046 
18:35	69.9	69.9	69.9	28	35.3	0	2	315	0.00	30.046 
18:40	69.8	69.8	69.8	29	36.1	0	1	315	0.00	30.046 
18:45	69.4	69.4	69.4	29	35.8	0	1	315	0.00	30.053 
18:50	69.3	69.3	69.3	29	35.7	1	6	270	0.00	30.053 
18:55	68.9	68.9	68.9	30	36.2	1	4	270	0.00	30.053 
19:00	68.8	68.8	68.8	30	36.1	0	1	270	0.00	30.056 
19:05	68.3	68.3	68.3	31	36.5	0	1	270	0.00	30.056 
19:10	67.8	67.8	67.8	31	36.1	0	1	270	0.00	30.056 
19:15	67.4	67.4	67.4	32	36.5	0	2	270	0.00	30.059 
19:20	67.1	67.1	67.1	32	36.3	0	1	270	0.00	30.059 
19:25	66.8	66.8	66.8	33	36.8	0	1	270	0.00	30.059 
19:30	66.3	66.3	66.3	34	37.1	0	1	270	0.00	30.064 
19:35	65.8	65.8	65.8	35	37.4	0	1	270	0.00	30.064 
19:40	65.5	65.5	65.5	35	37.1	0	1	270	0.00	30.064 
19:45	65.0	65.0	65.0	37	38.1	0	0	---	0.00	30.070 
19:50	64.3	64.3	64.3	38	38.1	0	0	---	0.00	30.070 
19:55	63.5	63.5	63.5	40	38.7	0	0	---	0.00	30.070 
20:00	62.6	62.6	62.6	41	38.6	0	0	---	0.00	30.075 
20:05	61.8	61.8	61.8	42	38.5	0	0	---	0.00	30.075 
20:10	61.6	61.6	61.6	43	38.9	0	0	---	0.00	30.075 
20:15	61.8	61.8	61.8	42	38.5	0	0	---	0.00	30.075 
20:20	62.0	62.0	62.0	42	38.6	0	1	270	0.00	30.075 
20:25	62.0	62.0	62.0	43	39.2	0	1	270	0.00	30.075 
20:30	62.0	62.0	62.0	43	39.2	0	1	270	0.00	30.076 
20:35	61.8	61.8	61.8	43	39.1	0	1	270	0.00	30.076 
20:40	61.5	61.5	61.5	43	38.8	0	0	---	0.00	30.076 
20:45	61.2	61.2	61.2	44	39.1	0	0	---	0.00	30.079 
20:50	60.9	60.9	60.9	45	39.4	0	1	270	0.00	30.079 
20:55	60.5	60.5	60.5	46	39.6	0	0	---	0.00	30.079 
21:00	60.2	60.2	60.2	46	39.3	0	0	---	0.00	30.086 
21:05	59.9	59.9	59.9	47	39.6	0	0	---	0.00	30.086 
21:10	59.8	59.8	59.8	47	39.5	0	0	---	0.00	30.086 
21:15	59.6	59.6	59.6	47	39.3	0	0	---	0.00	30.081 
21:20	59.5	59.5	59.5	47	39.3	0	0	---	0.00	30.081 
21:25	59.3	59.3	59.3	47	39.1	0	1	270	0.00	30.081 
21:30	59.3	59.3	59.3	47	39.1	0	1	270	0.00	30.082 
21:35	59.3	59.3	59.3	47	39.1	0	0	---	0.00	30.082 
21:40	59.0	59.0	59.0	49	39.9	0	0	---	0.00	30.082 
21:45	58.6	58.6	58.6	49	39.5	0	0	---	0.00	30.082 
21:50	58.1	58.1	58.1	50	39.6	0	0	---	0.00	30.082 
21:55	57.6	57.6	57.6	50	39.1	0	0	---	0.00	30.082 
22:00	57.0	57.0	57.0	51	39.1	0	0	---	0.00	30.085 
22:05	56.5	56.5	56.5	53	39.6	0	0	---	0.00	30.085 
22:10	55.7	55.7	55.7	55	39.8	0	0	---	0.00	30.085 
22:15	55.0	55.0	55.0	57	40.0	0	0	---	0.00	30.085 
22:20	54.4	54.4	54.4	58	39.9	0	0	---	0.00	30.085 
22:25	53.8	53.8	53.8	59	39.8	0	0	---	0.00	30.085 
22:30	53.3	53.3	53.3	59	39.3	0	0	---	0.00	30.088 
22:35	52.9	52.9	52.9	62	40.2	0	0	---	0.00	30.088 
22:40	52.5	52.5	52.5	62	39.9	0	0	---	0.00	30.088 
22:45	51.9	51.9	51.9	64	40.1	0	0	---	0.00	30.091 
22:50	51.4	51.4	51.4	66	40.4	0	0	---	0.00	30.091 
22:55	51.1	51.1	51.1	66	40.1	0	0	---	0.00	30.091 
23:00	50.8	50.8	50.8	68	40.6	0	0	---	0.00	30.094 
23:05	50.4	50.4	50.4	69	40.6	0	0	---	0.00	30.094 
23:10	50.1	50.1	50.1	69	40.3	0	0	---	0.00	30.094 
23:15	49.8	49.8	49.8	69	40.0	0	0	---	0.00	30.094 
23:20	49.6	49.6	49.6	70	40.2	0	0	---	0.00	30.094 
23:25	49.4	49.4	49.4	70	40.0	0	0	---	0.00	30.094 
23:30	49.1	49.1	49.1	72	40.5	0	0	---	0.00	30.095 
23:35	48.8	48.8	48.8	73	40.5	0	0	---	0.00	30.095 
23:40	48.6	48.6	48.6	74	40.7	0	0	---	0.00	30.095 
23:45	48.5	48.5	48.5	74	40.6	0	0	---	0.00	30.094 
23:50	48.2	48.2	48.2	75	40.7	0	0	---	0.00	30.094 
23:55	47.9	47.9	47.9	75	40.4	0	0	---	0.00	30.094 

CoCoRaHS
IN-AL-39
A2 Web Hosting
Creative Commons License
GoDaddy
search engine by freefind advanced

loaded 2018-12-19 10:36:39 • last modified 2010-11-18 10:43:29
Privacy PolicyDisclaimer
• wx.awcolley.com is powered by PmWiki v.2002016 •
• all content (unless otherwise noted) © 2018 A W Colley